Time;durP1;ratioP1;P1;durP2;ratioP2;P2;SDS_P1;SDS_P2;PMS_P1;PMS_P2;Temp;Humidity;BMP_temperature;BMP_pressure;BME280_temperature;BME280_humidity;BME280_pressure;Samples;Min_cycle;Max_cycle;Signal;HPM_P1;HPM_P2
2021/06/02 00:00:11;;;;;;;8.40;4.03;;;;;;;9.99;50.78;100290.22;4992555;28;20038;-72
2021/06/02 00:02:46;;;;;;;9.38;3.88;;;;;;;9.97;50.54;100289.47;5003111;28;20052;-71
2021/06/02 00:05:13;;;;;;;7.60;3.83;;;;;;;9.97;50.82;100289.47;5032132;28;20041;-72
2021/06/02 00:07:42;;;;;;;8.32;3.92;;;;;;;9.96;50.74;100290.44;5032057;28;20060;-72
2021/06/02 00:10:12;;;;;;;8.45;4.00;;;;;;;9.93;50.80;100293.25;5031910;28;20044;-71
2021/06/02 00:12:40;;;;;;;8.90;3.60;;;;;;;9.92;51.05;100286.28;5031830;28;20044;-70
2021/06/02 00:15:08;;;;;;;9.65;4.47;;;;;;;9.92;50.93;100296.84;5031590;28;20087;-69
2021/06/02 00:17:33;;;;;;;;;;;;;;;9.92;50.91;100288.91;5032229;28;20493;-71
2021/06/02 00:19:59;;;;;;;7.05;3.53;;;;;;;9.91;51.02;100289.88;5031934;28;19995;-69
2021/06/02 00:22:27;;;;;;;8.77;3.92;;;;;;;9.92;50.66;100287.13;5031805;28;20045;-72
2021/06/02 00:24:52;;;;;;;8.45;3.80;;;;;;;9.89;50.82;100287.31;5030536;28;20037;-69
2021/06/02 00:27:18;;;;;;;8.73;3.70;;;;;;;9.87;51.15;100297.16;5031435;28;20081;-69
2021/06/02 00:29:45;;;;;;;7.95;3.90;;;;;;;9.83;51.63;100287.72;5031702;28;20359;-71
2021/06/02 00:32:13;;;;;;;5.72;3.80;;;;;;;9.82;51.32;100293.94;5031440;28;20041;-71
2021/06/02 00:34:39;;;;;;;7.28;3.75;;;;;;;9.80;51.77;100301.13;5036897;28;20034;-71
2021/06/02 00:37:08;;;;;;;6.03;3.55;;;;;;;9.79;51.57;100291.50;5038065;28;20037;-71
2021/06/02 00:39:34;;;;;;;8.23;3.80;;;;;;;9.79;51.92;100291.50;5038139;28;20378;-72
2021/06/02 00:42:01;;;;;;;7.25;3.85;;;;;;;9.77;51.73;100293.38;5038176;28;20037;-71
2021/06/02 00:44:27;;;;;;;7.53;4.00;;;;;;;9.77;51.61;100288.09;5037821;28;20544;-70
2021/06/02 00:46:56;;;;;;;8.15;3.60;;;;;;;9.75;52.28;100290.00;5038221;28;20106;-72
2021/06/02 00:49:24;;;;;;;11.98;3.80;;;;;;;9.73;52.32;100300.66;5037739;28;20049;-70
2021/06/02 00:52:03;;;;;;;10.27;3.58;;;;;;;9.71;52.51;100297.28;5038002;28;20064;-70
2021/06/02 00:54:31;;;;;;;10.27;3.92;;;;;;;9.69;51.93;100299.16;5038051;28;20378;-70
2021/06/02 00:57:02;;;;;;;9.80;4.63;;;;;;;9.68;52.75;100310.66;5038122;28;20040;-69
2021/06/02 00:59:34;;;;;;;9.95;4.05;;;;;;;9.65;52.93;100302.94;5037927;28;20359;-69
2021/06/02 01:02:00;;;;;;;10.43;4.15;;;;;;;9.64;52.81;100293.31;5036876;28;20033;-70
2021/06/02 01:04:27;;;;;;;10.00;4.35;;;;;;;9.63;52.82;100292.50;5018029;28;20490;-70
2021/06/02 01:06:54;;;;;;;12.70;4.07;;;;;;;9.62;52.78;100292.56;5018197;28;20041;-70
2021/06/02 01:09:21;;;;;;;7.20;3.53;;;;;;;9.60;52.87;100289.19;5016990;28;20069;-71
2021/06/02 01:11:51;;;;;;;7.57;3.70;;;;;;;9.59;53.35;100287.50;5018163;28;20050;-71
2021/06/02 01:14:20;;;;;;;9.65;3.88;;;;;;;9.57;53.18;100290.25;5018319;28;20080;-70
2021/06/02 01:16:46;;;;;;;9.18;3.70;;;;;;;9.58;53.03;100286.63;5018326;28;20478;-69
2021/06/02 01:19:13;;;;;;;9.75;4.00;;;;;;;9.57;53.60;100286.72;5018638;28;20080;-69
2021/06/02 01:21:50;;;;;;;9.40;3.92;;;;;;;9.59;53.52;100288.31;5018575;28;20475;-70
2021/06/02 01:24:16;;;;;;;9.93;3.78;;;;;;;9.61;53.52;100289.09;5016765;28;20042;-71
2021/06/02 01:26:42;;;;;;;7.82;3.70;;;;;;;9.63;53.23;100288.97;5017584;28;20046;-70
2021/06/02 01:29:08;;;;;;;8.43;3.60;;;;;;;9.66;53.34;100291.44;5016061;28;20045;-70
2021/06/02 01:31:43;;;;;;;7.03;3.88;;;;;;;9.66;53.41;100289.63;5018188;28;20038;-71
2021/06/02 01:34:30;;;;;;;7.75;3.63;;;;;;;9.65;53.56;100287.09;5017619;28;20041;-71
2021/06/02 01:37:12;;;;;;;10.75;4.72;;;;;;;9.64;53.23;100288.88;5017981;28;20157;-71
2021/06/02 01:40:08;;;;;;;10.90;3.83;;;;;;;9.65;53.46;100289.75;5017833;28;20046;-69
2021/06/02 01:42:49;;;;;;;9.27;3.97;;;;;;;9.64;53.22;100288.03;5017671;28;20048;-69
2021/06/02 01:45:36;;;;;;;10.25;4.43;;;;;;;9.63;53.74;100294.25;5015921;28;20037;-70
2021/06/02 01:48:45;;;;;;;7.95;3.97;;;;;;;9.63;54.04;100291.63;5013667;28;20050;-69
2021/06/02 01:51:49;;;;;;;12.68;5.22;;;;;;;9.63;53.83;100288.97;5014271;28;20463;-72
2021/06/02 01:54:33;;;;;;;11.65;4.45;;;;;;;9.63;54.08;100295.13;5014276;28;20038;-70
2021/06/02 01:57:39;;;;;;;10.65;4.20;;;;;;;9.64;53.79;100293.31;5014304;28;20558;-70
2021/06/02 02:00:10;;;;;;;9.43;4.13;;;;;;;9.63;54.25;100296.91;5006513;28;20104;-70
2021/06/02 02:03:23;;;;;;;8.25;4.32;;;;;;;9.64;54.55;100298.59;5016357;28;20037;-69
2021/06/02 02:06:13;;;;;;;10.65;4.68;;;;;;;9.66;53.95;100297.56;5030679;28;20041;-69
2021/06/02 02:08:47;;;;;;;9.20;4.32;;;;;;;9.67;53.95;100299.28;5030378;28;20433;-70
2021/06/02 02:11:31;;;;;;;8.77;4.15;;;;;;;9.69;53.85;100301.81;5030507;28;20037;-71
2021/06/02 02:14:28;;;;;;;9.70;4.72;;;;;;;9.72;54.43;100296.34;5030678;28;20041;-71
2021/06/02 02:17:18;;;;;;;10.57;4.00;;;;;;;9.71;54.50;100298.13;5010930;28;20148;-71
2021/06/02 02:20:18;;;;;;;9.65;3.92;;;;;;;9.73;53.98;100290.09;5000229;28;20472;-71
2021/06/02 02:23:03;;;;;;;11.05;4.80;;;;;;;9.74;54.35;100294.44;4983064;28;20046;-70
2021/06/02 02:25:50;;;;;;;14.32;5.03;;;;;;;9.77;54.08;100293.38;5002456;28;20038;-69
2021/06/02 02:28:24;;;;;;;10.68;4.53;;;;;;;9.78;54.59;100290.66;5008475;28;20588;-69
2021/06/02 02:31:02;;;;;;;8.63;4.43;;;;;;;9.81;54.42;100290.47;4997185;28;20149;-68
2021/06/02 02:33:31;;;;;;;9.60;4.07;;;;;;;9.84;54.60;100295.56;4991818;28;20060;-69
2021/06/02 02:36:00;;;;;;;10.32;4.00;;;;;;;9.87;54.23;100300.63;4991101;28;20084;-68
2021/06/02 02:38:47;;;;;;;11.98;5.03;;;;;;;9.90;54.29;100299.59;4990797;28;20038;-70
2021/06/02 02:41:30;;;;;;;12.68;4.25;;;;;;;9.96;54.15;100293.06;5010868;28;20549;-72
2021/06/02 02:44:05;;;;;;;12.98;5.15;;;;;;;10.00;53.85;100292.75;5008295;28;20521;-70
2021/06/02 02:46:44;;;;;;;17.85;7.45;;;;;;;10.06;53.95;100298.63;5010108;28;20104;-71
2021/06/02 02:49:22;;;;;;;12.23;4.93;;;;;;;10.10;54.09;100294.81;5010906;28;20041;-70
2021/06/02 02:52:13;;;;;;;11.80;5.15;;;;;;;10.13;54.08;100300.75;5003085;28;20486;-70
2021/06/02 02:54:50;;;;;;;13.65;5.15;;;;;;;10.19;53.69;100299.50;5010832;28;20038;-70
2021/06/02 02:57:55;;;;;;;10.35;4.47;;;;;;;10.25;53.46;100295.59;5018276;28;20478;-69
2021/06/02 03:00:26;;;;;;;10.80;4.82;;;;;;;10.29;53.58;100311.19;4994094;28;20049;-71
2021/06/02 03:03:06;;;;;;;19.63;5.35;;;;;;;10.35;53.86;100297.56;4996528;28;20048;-69
2021/06/02 03:05:34;;;;;;;12.23;4.68;;;;;;;10.41;53.66;100301.59;5012355;28;20032;-70
2021/06/02 03:08:06;;;;;;;;;;;;;;;10.46;53.30;100299.50;5000197;28;20519;-68
2021/06/02 03:10:39;;;;;;;11.20;4.82;;;;;;;10.54;52.93;100298.97;4993505;28;19910;-71
2021/06/02 03:13:12;;;;;;;10.82;4.93;;;;;;;10.60;52.94;100298.56;4991572;28;20043;-71
2021/06/02 03:15:38;;;;;;;14.98;5.43;;;;;;;10.65;52.80;100300.91;4991570;28;20120;-70
2021/06/02 03:18:32;;;;;;;13.90;4.75;;;;;;;10.73;52.51;100309.19;4993123;28;20122;-72
2021/06/02 03:20:58;;;;;;;11.57;5.07;;;;;;;10.82;52.34;100305.91;4991334;28;20420;-70
2021/06/02 03:23:27;;;;;;;14.57;5.68;;;;;;;10.88;52.28;100302.00;4992267;28;20069;-72
2021/06/02 03:26:17;;;;;;;10.73;4.65;;;;;;;10.95;52.32;100299.78;4993910;28;20060;-71
2021/06/02 03:28:55;;;;;;;14.77;6.03;;;;;;;11.01;52.00;100299.34;5013849;28;20133;-69
2021/06/02 03:31:46;;;;;;;32.95;16.20;;;;;;;11.10;51.38;100303.16;4998160;28;20464;-68
2021/06/02 03:34:25;;;;;;;24.17;9.95;;;;;;;11.15;51.88;100307.19;4994246;28;20464;-70
2021/06/02 03:37:37;;;;;;;12.07;5.28;;;;;;;11.24;51.55;100313.66;4996115;28;20084;-71
2021/06/02 03:40:24;;;;;;;15.55;5.10;;;;;;;11.34;51.26;100300.63;4991567;28;20038;-72
2021/06/02 03:42:59;;;;;;;15.10;5.95;;;;;;;11.43;51.39;100294.66;5007593;28;20096;-71
2021/06/02 03:45:48;;;;;;;10.43;4.90;;;;;;;11.53;50.98;100308.09;5006925;28;20065;-68
2021/06/02 03:48:57;;;;;;;14.38;6.72;;;;;;;11.64;50.45;100307.34;4994499;28;20092;-70
2021/06/02 03:51:30;;;;;;;14.80;5.80;;;;;;;11.74;50.55;100310.16;4992655;28;20034;-70
2021/06/02 03:54:18;;;;;;;15.90;5.93;;;;;;;11.82;50.12;100307.81;5007194;28;20037;-71
2021/06/02 03:56:47;;;;;;;16.95;5.15;;;;;;;12.68;49.30;100316.56;5010430;28;20030;-69
2021/06/02 03:59:20;;;;;;;9.70;4.80;;;;;;;15.05;44.19;100308.31;5004070;28;20455;-69
2021/06/02 04:01:52;;;;;;;11.35;5.30;;;;;;;16.84;40.06;100315.59;4991821;28;20391;-72
2021/06/02 04:04:24;;;;;;;7.75;4.30;;;;;;;18.06;36.83;100316.56;5045007;28;20091;-71
2021/06/02 04:07:09;;;;;;;11.77;4.85;;;;;;;19.09;34.81;100316.09;5031690;28;20033;-70
2021/06/02 04:09:54;;;;;;;11.15;4.25;;;;;;;19.92;33.37;100320.00;5010799;28;20038;-73
2021/06/02 04:12:48;;;;;;;10.65;4.43;;;;;;;20.81;32.08;100314.06;5011144;28;20042;-72
2021/06/02 04:15:15;;;;;;;11.60;4.57;;;;;;;21.39;30.30;100322.03;5009722;28;20100;-70
2021/06/02 04:17:48;;;;;;;22.25;5.15;;;;;;;22.04;30.18;100315.53;5010514;28;20128;-70
2021/06/02 04:20:15;;;;;;;10.18;4.38;;;;;;;22.34;29.65;100328.31;5011453;28;20113;-71
2021/06/02 04:22:42;;;;;;;14.13;4.50;;;;;;;22.94;27.82;100323.94;5010332;28;20056;-73
2021/06/02 04:25:09;;;;;;;8.70;4.40;;;;;;;23.72;27.51;100321.75;5010233;28;20069;-70
2021/06/02 04:27:38;;;;;;;10.70;4.75;;;;;;;23.56;26.42;100330.06;5011555;28;20052;-71
2021/06/02 04:30:06;;;;;;;12.05;4.60;;;;;;;23.81;26.46;100324.34;5011391;28;20037;-70
2021/06/02 04:32:43;;;;;;;9.35;4.05;;;;;;;24.41;25.06;100316.09;5009309;28;20510;-72
2021/06/02 04:35:13;;;;;;;8.65;4.18;;;;;;;24.68;25.07;100334.25;5011571;28;20038;-75
2021/06/02 04:37:39;;;;;;;12.98;4.40;;;;;;;25.25;24.38;100342.38;5012079;28;20124;-70
2021/06/02 04:40:07;;;;;;;9.07;4.55;;;;;;;24.90;24.34;100336.94;5011679;28;20120;-74
2021/06/02 04:42:38;;;;;;;11.65;3.95;;;;;;;24.77;24.79;100343.06;5011433;28;20049;-71
2021/06/02 04:45:06;;;;;;;10.23;3.97;;;;;;;25.85;23.54;100339.16;5011480;28;20066;-73
2021/06/02 04:47:33;;;;;;;13.65;4.30;;;;;;;26.42;23.24;100336.22;5011566;28;20378;-71
2021/06/02 04:50:20;;;;;;;6.85;3.63;;;;;;;26.36;22.64;100345.19;5011810;28;20033;-73
2021/06/02 04:53:24;;;;;;;10.10;4.00;;;;;;;28.05;21.75;100352.91;5011523;28;20033;-74
2021/06/02 04:56:12;;;;;;;8.18;3.90;;;;;;;28.25;21.37;100353.63;5011722;28;20065;-71
2021/06/02 04:59:02;;;;;;;11.10;4.15;;;;;;;28.44;20.59;100352.88;5011547;28;20041;-70
2021/06/02 05:01:54;;;;;;;12.15;4.57;;;;;;;28.48;20.00;100346.78;5011247;28;20050;-70
2021/06/02 05:05:10;;;;;;;8.05;3.83;;;;;;;28.20;20.14;100348.00;5029197;28;20034;-72
2021/06/02 05:08:08;;;;;;;5.75;3.78;;;;;;;28.58;20.05;100354.47;5028691;28;20038;-70
2021/06/02 05:11:00;;;;;;;6.43;3.95;;;;;;;28.43;19.63;100365.66;5012761;28;20086;-74
2021/06/02 05:13:45;;;;;;;10.82;3.35;;;;;;;28.53;19.88;100368.72;5012064;28;20087;-73
2021/06/02 05:16:13;;;;;;;12.77;3.70;;;;;;;28.47;19.39;100372.31;5011973;28;20037;-72
2021/06/02 05:19:20;;;;;;;9.32;3.63;;;;;;;29.60;19.08;100366.13;5028966;28;20124;-69
2021/06/02 05:22:08;;;;;;;10.68;3.13;;;;;;;29.48;19.61;100382.41;5017107;28;20041;-79
2021/06/02 05:24:52;;;;;;;5.22;2.92;;;;;;;29.66;17.90;100374.22;5032320;28;20038;-78
2021/06/02 05:27:42;;;;;;;7.10;3.42;;;;;;;30.21;17.82;100374.41;5031594;28;20050;-72
2021/06/02 05:30:52;;;;;;;11.18;4.88;;;;;;;29.86;17.81;100375.88;5031607;28;20111;-71
2021/06/02 05:33:55;;;;;;;5.65;3.60;;;;;;;30.62;17.31;100376.34;4992469;28;20382;-69
2021/06/02 05:36:33;;;;;;;8.98;4.10;;;;;;;29.31;18.16;100390.31;5015912;28;20114;-73
2021/06/02 05:39:21;;;;;;;13.15;5.68;;;;;;;29.30;18.99;100385.97;5032585;28;20036;-71
2021/06/02 05:41:56;;;;;;;8.57;4.95;;;;;;;29.82;18.32;100377.38;5032818;28;20053;-72
2021/06/02 05:44:47;;;;;;;9.77;3.97;;;;;;;30.08;17.90;100381.69;5034072;28;20120;-73
2021/06/02 05:47:34;;;;;;;8.02;3.10;;;;;;;29.85;17.68;100379.69;5034307;28;20045;-73
2021/06/02 05:50:25;;;;;;;11.27;3.20;;;;;;;29.68;17.31;100377.56;5034382;28;20037;-74
2021/06/02 05:53:28;;;;;;;8.43;3.00;;;;;;;30.93;16.78;100370.78;5034489;28;20033;-73
2021/06/02 05:56:03;;;;;;;8.15;2.60;;;;;;;30.46;16.69;100375.06;5034310;28;20128;-72
2021/06/02 05:58:47;;;;;;;16.25;3.55;;;;;;;30.11;16.82;100370.34;5033920;28;20096;-72
2021/06/02 06:01:54;;;;;;;7.13;2.97;;;;;;;30.59;16.65;100384.16;5032629;28;20095;-73
2021/06/02 06:05:03;;;;;;;8.77;3.35;;;;;;;31.21;16.45;100380.22;5012922;28;20042;-73
2021/06/02 06:07:53;;;;;;;4.65;2.58;;;;;;;31.36;16.27;100375.09;4998121;28;20082;-73
2021/06/02 06:10:38;;;;;;;6.50;2.97;;;;;;;30.88;15.73;100385.19;5013208;28;20072;-77
2021/06/02 06:13:30;;;;;;;11.18;4.07;;;;;;;30.48;15.84;100389.38;5014562;28;20084;-72
2021/06/02 06:16:27;;;;;;;8.60;2.85;;;;;;;30.31;16.28;100380.16;5014380;28;20041;-74
2021/06/02 06:19:11;;;;;;;;;;;;;;;29.84;16.88;100381.56;5029744;28;20522;-72
2021/06/02 06:22:01;;;;;;;7.28;3.13;;;;;;;30.54;16.50;100379.41;5014339;28;19909;-74
2021/06/02 06:24:40;;;;;;;9.48;3.15;;;;;;;30.87;16.35;100371.72;5013775;28;20076;-73
2021/06/02 06:27:46;;;;;;;9.55;3.60;;;;;;;30.73;16.19;100374.72;5013506;28;20086;-72
2021/06/02 06:30:26;;;;;;;6.38;2.65;;;;;;;32.35;15.18;100377.94;4994764;28;20042;-73
2021/06/02 06:32:56;;;;;;;5.50;2.72;;;;;;;33.39;14.94;100373.88;5011143;28;20085;-72
2021/06/02 06:35:24;;;;;;;5.57;2.78;;;;;;;34.23;14.12;100371.03;4994866;28;20037;-75
2021/06/02 06:37:52;;;;;;;8.55;2.92;;;;;;;33.36;14.43;100376.31;4995020;28;20041;-79
2021/06/02 06:40:25;;;;;;;10.77;2.83;;;;;;;32.89;14.66;100381.09;4994671;28;20494;-73
2021/06/02 06:42:54;;;;;;;8.85;2.88;;;;;;;34.05;14.96;100377.75;5011152;28;20034;-73
2021/06/02 06:45:24;;;;;;;6.07;3.17;;;;;;;31.83;15.13;100370.63;5011175;28;20557;-74
2021/06/02 06:47:53;;;;;;;8.48;3.90;;;;;;;31.75;15.33;100367.22;5011192;28;20046;-75
2021/06/02 06:50:20;;;;;;;8.23;3.72;;;;;;;31.52;15.95;100364.50;5011071;28;20042;-72
2021/06/02 06:52:56;;;;;;;3.90;2.92;;;;;;;32.16;15.30;100355.41;4995724;28;20042;-76
2021/06/02 06:55:22;;;;;;;5.28;2.80;;;;;;;32.10;15.37;100357.19;5011085;28;20396;-72
2021/06/02 06:57:50;;;;;;;10.57;2.80;;;;;;;31.69;15.38;100357.25;5011013;28;20482;-73
2021/06/02 07:00:16;;;;;;;10.25;2.58;;;;;;;31.73;15.10;100369.34;5010946;28;20134;-75
2021/06/02 07:02:43;;;;;;;;;;;;;;;32.27;15.18;100362.75;5011434;28;20038;-71
2021/06/02 07:05:09;;;;;;;;;;;;;;;32.10;15.25;100370.88;4998004;28;19921;-74
2021/06/02 07:07:35;;;;;;;9.18;4.78;;;;;;;31.14;15.65;100364.78;5011735;28;19913;-75
2021/06/02 07:10:04;;;;;;;8.35;2.80;;;;;;;32.04;14.89;100363.66;5013253;28;20033;-72
2021/06/02 07:12:30;;;;;;;7.45;2.55;;;;;;;32.17;14.48;100368.81;5012425;28;20117;-72
2021/06/02 07:14:56;;;;;;;;;;;;;;;32.52;14.25;100370.56;5012370;28;20129;-72
2021/06/02 07:17:23;;;;;;;6.33;3.53;;;;;;;30.77;15.71;100375.06;5013430;28;19952;-74
2021/06/02 07:19:53;;;;;;;7.00;2.83;;;;;;;32.41;14.13;100350.41;5012036;28;20042;-74
2021/06/02 07:22:23;;;;;;;6.90;2.95;;;;;;;32.76;14.30;100366.88;5011337;28;20037;-72
2021/06/02 07:24:57;;;;;;;6.63;2.80;;;;;;;30.78;15.11;100369.38;5012917;28;20041;-74
2021/06/02 07:27:23;;;;;;;4.38;2.83;;;;;;;31.75;15.24;100350.81;5012985;28;20082;-73
2021/06/02 07:29:49;;;;;;;9.20;3.20;;;;;;;31.14;15.03;100351.13;5013018;28;20045;-71
2021/06/02 07:32:16;;;;;;;9.65;3.15;;;;;;;30.81;15.56;100338.00;5013008;28;20048;-74
2021/06/02 07:34:41;;;;;;;7.57;2.80;;;;;;;31.37;15.60;100348.59;5011784;28;20037;-72
2021/06/02 07:37:07;;;;;;;10.37;3.23;;;;;;;32.67;14.55;100339.88;5012949;28;20084;-75
2021/06/02 07:39:33;;;;;;;8.87;4.80;;;;;;;33.38;14.10;100331.09;5012312;28;20061;-73
2021/06/02 07:41:59;;;;;;;4.00;2.78;;;;;;;32.82;14.68;100341.22;5012648;28;20049;-76
2021/06/02 07:44:24;;;;;;;6.53;3.40;;;;;;;33.80;14.22;100337.09;5011949;28;20575;-73
2021/06/02 07:46:51;;;;;;;6.20;3.17;;;;;;;33.90;13.76;100345.47;5012936;28;20034;-75
2021/06/02 07:49:16;;;;;;;4.53;2.58;;;;;;;33.02;14.22;100341.56;4994959;28;20120;-74
2021/06/02 07:51:42;;;;;;;11.20;3.37;;;;;;;31.26;15.23;100329.22;5013010;28;20037;-75
2021/06/02 07:54:08;;;;;;;11.27;3.23;;;;;;;31.05;15.34;100336.09;5012404;28;20088;-73
2021/06/02 07:56:34;;;;;;;5.18;3.30;;;;;;;29.86;16.42;100338.53;5012525;28;20033;-72
2021/06/02 07:59:00;;;;;;;17.10;4.60;;;;;;;30.75;15.96;100336.22;5011473;28;20544;-74
2021/06/02 08:01:26;;;;;;;9.87;3.53;;;;;;;31.68;15.05;100320.03;5012213;28;20160;-73
2021/06/02 08:03:52;;;;;;;6.03;3.10;;;;;;;32.69;14.75;100326.75;5028297;28;20041;-74
2021/06/02 08:06:18;;;;;;;13.97;3.27;;;;;;;32.58;14.74;100324.94;5032435;28;20041;-73
2021/06/02 08:08:43;;;;;;;7.03;2.80;;;;;;;32.08;14.64;100324.59;5047512;28;20045;-72
2021/06/02 08:11:09;;;;;;;11.05;3.05;;;;;;;34.09;13.67;100323.97;5031883;28;20069;-73
2021/06/02 08:13:35;;;;;;;12.80;3.03;;;;;;;32.32;14.21;100321.75;5031175;28;20050;-76
2021/06/02 08:16:01;;;;;;;8.40;3.20;;;;;;;31.53;14.85;100331.44;5032080;28;20467;-71
2021/06/02 08:18:27;;;;;;;4.63;3.00;;;;;;;31.36;15.25;100320.41;5031732;28;20034;-71
2021/06/02 08:20:53;;;;;;;5.00;3.23;;;;;;;31.70;14.65;100303.34;5032002;28;20083;-72
2021/06/02 08:23:19;;;;;;;10.13;3.30;;;;;;;32.14;15.57;100308.28;5031785;28;20652;-72
2021/06/02 08:25:44;;;;;;;4.83;2.83;;;;;;;32.82;14.34;100313.84;5031431;28;20122;-73
2021/06/02 08:28:10;;;;;;;7.53;3.53;;;;;;;33.09;14.51;100310.38;5031921;28;20319;-72
2021/06/02 08:30:36;;;;;;;6.35;3.60;;;;;;;33.28;14.55;100322.69;5031386;28;20462;-75
2021/06/02 08:33:02;;;;;;;7.07;3.40;;;;;;;32.70;14.47;100312.00;5031411;28;20037;-73
2021/06/02 08:35:28;;;;;;;6.23;3.17;;;;;;;32.67;14.57;100323.44;5031393;28;20608;-75
2021/06/02 08:37:54;;;;;;;7.10;2.90;;;;;;;32.04;15.13;100311.66;5031723;28;20275;-73
2021/06/02 08:40:20;;;;;;;8.52;3.25;;;;;;;31.90;15.20;100305.66;5031225;28;20099;-76
2021/06/02 08:42:47;;;;;;;8.37;2.90;;;;;;;30.78;16.07;100320.19;5031904;28;20055;-74
2021/06/02 08:45:14;;;;;;;8.30;3.22;;;;;;;29.80;16.46;100319.53;5032048;28;20061;-75
2021/06/02 08:47:44;;;;;;;5.55;2.75;;;;;;;29.92;16.51;100309.53;5032298;28;20080;-76
2021/06/02 08:50:13;;;;;;;5.10;2.88;;;;;;;30.43;16.25;100296.41;5031960;28;20518;-73
2021/06/02 08:52:40;;;;;;;9.70;3.08;;;;;;;30.91;15.81;100286.34;5030460;28;20044;-77
2021/06/02 08:55:18;;;;;;;8.32;2.78;;;;;;;31.07;16.52;100284.00;5032465;28;20029;-75
2021/06/02 08:57:47;;;;;;;7.28;3.20;;;;;;;31.38;15.83;100290.94;5035825;28;20490;-77
2021/06/02 09:00:15;;;;;;;8.45;2.97;;;;;;;32.35;15.83;100293.91;5035566;28;20045;-75
2021/06/02 09:02:44;;;;;;;4.53;3.67;;;;;;;33.90;14.64;100281.50;5028437;28;20038;-72
2021/06/02 09:05:10;;;;;;;5.57;2.88;;;;;;;34.27;14.04;100284.31;5015652;28;20033;-77
2021/06/02 09:07:38;;;;;;;5.18;2.28;;;;;;;31.82;15.20;100282.25;5015228;28;20037;-74
2021/06/02 09:10:06;;;;;;;11.10;2.78;;;;;;;31.42;14.90;100286.66;5015271;28;20483;-74
2021/06/02 09:12:34;;;;;;;9.48;3.00;;;;;;;31.55;15.70;100285.53;5015083;28;20030;-73
2021/06/02 09:15:03;;;;;;;9.43;2.70;;;;;;;32.09;14.92;100290.69;5030655;28;20057;-77
2021/06/02 09:17:30;;;;;;;5.78;2.42;;;;;;;31.52;15.43;100275.09;5015675;28;20037;-74
2021/06/02 09:19:55;;;;;;;4.37;2.47;;;;;;;32.72;14.90;100281.59;5015347;28;20045;-75
2021/06/02 09:22:22;;;;;;;7.33;2.60;;;;;;;32.26;15.02;100281.69;5014943;28;20129;-73
2021/06/02 09:24:57;;;;;;;4.53;2.70;;;;;;;32.76;15.04;100280.03;5015025;28;20044;-76
2021/06/02 09:27:50;;;;;;;5.85;2.67;;;;;;;32.83;15.05;100267.00;5015074;28;20037;-73
2021/06/02 09:30:21;;;;;;;6.13;3.08;;;;;;;32.84;15.01;100276.06;5015170;28;20393;-77
2021/06/02 09:32:46;;;;;;;4.38;2.45;;;;;;;32.63;14.72;100272.97;5015396;28;20038;-74
2021/06/02 09:35:13;;;;;;;7.10;3.10;;;;;;;32.79;14.99;100260.38;5015637;28;20460;-74
2021/06/02 09:37:53;;;;;;;;;;;;;;;31.38;15.06;100266.34;5015905;28;20443;-75
2021/06/02 09:40:21;;;;;;;13.40;3.80;;;;;;;29.57;16.61;100272.00;5016529;28;19909;-75
2021/06/02 09:42:46;;;;;;;12.45;2.70;;;;;;;30.12;16.84;100265.59;5016832;28;20084;-74
2021/06/02 09:45:14;;;;;;;5.72;2.20;;;;;;;30.39;16.20;100278.81;5017239;28;20037;-73
2021/06/02 09:48:02;;;;;;;5.45;2.15;;;;;;;29.51;16.45;100279.22;5032782;28;20132;-75
2021/06/02 09:50:33;;;;;;;7.32;2.40;;;;;;;29.18;17.03;100288.56;5015836;28;20045;-75
2021/06/02 09:53:02;;;;;;;13.40;2.70;;;;;;;28.29;17.79;100290.59;5014768;28;20069;-71
2021/06/02 09:55:39;;;;;;;4.63;2.05;;;;;;;27.79;18.02;100294.88;5014394;28;20077;-74
2021/06/02 09:58:05;;;;;;;3.97;1.98;;;;;;;27.09;18.80;100279.19;5014065;28;20068;-74
2021/06/02 10:00:38;;;;;;;5.78;2.13;;;;;;;26.48;19.14;100271.09;5014751;28;20029;-75
2021/06/02 10:03:09;;;;;;;2.60;1.92;;;;;;;26.53;19.25;100292.19;5024091;28;20120;-73
2021/06/02 10:05:39;;;;;;;7.40;2.03;;;;;;;25.44;20.47;100275.03;5034133;28;20034;-74
2021/06/02 10:08:05;;;;;;;8.35;2.20;;;;;;;25.08;21.02;100259.81;5034709;28;20530;-75
2021/06/02 10:10:32;;;;;;;11.10;3.25;;;;;;;25.56;20.99;100265.28;5034313;28;20083;-74
2021/06/02 10:13:08;;;;;;;4.50;2.80;;;;;;;24.87;22.21;100272.38;5034447;28;20124;-75
2021/06/02 10:15:37;;;;;;;5.28;3.05;;;;;;;24.52;22.24;100270.44;5034250;28;20402;-73
2021/06/02 10:18:05;;;;;;;6.85;2.60;;;;;;;24.32;22.65;100281.06;5034709;28;20403;-74
2021/06/02 10:20:31;;;;;;;4.25;2.28;;;;;;;24.02;22.77;100261.44;5032670;28;20037;-74
2021/06/02 10:22:59;;;;;;;7.45;3.03;;;;;;;23.56;23.82;100260.72;5033144;28;20064;-77
2021/06/02 10:25:28;;;;;;;5.10;2.55;;;;;;;23.35;24.28;100272.28;5033905;28;20029;-74
2021/06/02 10:27:57;;;;;;;8.52;2.60;;;;;;;24.72;22.83;100264.34;5034122;28;20136;-73
2021/06/02 10:30:25;;;;;;;5.55;2.72;;;;;;;25.96;21.61;100254.53;5033905;28;20033;-76
2021/06/02 10:32:56;;;;;;;8.50;2.40;;;;;;;26.79;21.27;100249.81;5034139;28;20037;-75
2021/06/02 10:35:21;;;;;;;5.15;2.05;;;;;;;26.54;20.45;100261.28;5033929;28;20455;-75
2021/06/02 10:37:47;;;;;;;7.60;2.40;;;;;;;26.76;19.93;100263.81;5034021;28;20099;-75
2021/06/02 10:40:23;;;;;;;5.47;2.17;;;;;;;26.43;20.11;100245.63;5033749;28;20034;-74
2021/06/02 10:43:08;;;;;;;5.70;2.65;;;;;;;25.67;21.23;100255.72;5034079;28;20132;-72
2021/06/02 10:45:44;;;;;;;5.78;2.55;;;;;;;25.70;21.07;100246.38;5032133;28;20095;-74
2021/06/02 10:48:12;;;;;;;4.25;2.90;;;;;;;25.24;21.95;100255.94;5032808;28;20041;-75
2021/06/02 10:50:40;;;;;;;4.30;2.38;;;;;;;24.62;22.89;100253.03;5032423;28;20049;-72
2021/06/02 10:53:19;;;;;;;16.38;3.88;;;;;;;24.19;23.21;100257.44;5048957;28;20045;-75
2021/06/02 10:55:47;;;;;;;9.38;3.83;;;;;;;23.83;23.77;100254.78;5033123;28;20040;-73
2021/06/02 10:58:22;;;;;;;10.35;4.53;;;;;;;23.28;24.45;100255.16;5033897;28;20038;-72
2021/06/02 11:01:09;;;;;;;7.53;3.47;;;;;;;23.97;23.79;100251.19;5033517;28;20049;-75
2021/06/02 11:03:37;;;;;;;11.45;3.00;;;;;;;24.79;23.72;100251.72;5019614;28;20042;-75
2021/06/02 11:06:06;;;;;;;9.23;2.95;;;;;;;25.48;22.82;100251.91;5013410;28;20438;-71
2021/06/02 11:08:50;;;;;;;8.63;3.03;;;;;;;25.29;22.68;100248.03;5013412;28;20486;-74
2021/06/02 11:11:21;;;;;;;8.73;2.45;;;;;;;25.06;22.76;100253.75;5013415;28;20029;-73
2021/06/02 11:14:21;;;;;;;5.60;2.58;;;;;;;24.50;23.60;100250.00;5012431;28;20045;-76
2021/06/02 11:17:09;;;;;;;4.97;2.72;;;;;;;23.88;23.86;100252.34;5013680;28;20172;-75
2021/06/02 11:19:37;;;;;;;3.83;2.40;;;;;;;23.73;24.28;100261.31;5012501;28;20042;-75
2021/06/02 11:22:06;;;;;;;6.72;2.60;;;;;;;24.10;24.13;100263.16;5012026;28;20037;-73
2021/06/02 11:24:32;;;;;;;4.60;2.33;;;;;;;24.39;23.96;100265.72;5012519;28;20064;-73
2021/06/02 11:27:13;;;;;;;23.20;12.82;;;;;;;24.35;24.08;100260.91;5013113;28;20056;-73
2021/06/02 11:29:51;;;;;;;3.80;2.13;;;;;;;24.31;23.18;100249.66;5011756;28;20465;-73
2021/06/02 11:32:28;;;;;;;4.07;2.03;;;;;;;24.43;22.98;100249.13;5013186;28;20038;-75
2021/06/02 11:34:58;;;;;;;5.13;2.65;;;;;;;24.17;23.98;100256.78;4995662;28;20474;-77
2021/06/02 11:37:29;;;;;;;11.10;6.38;;;;;;;24.03;24.09;100245.03;5012938;28;20041;-74
2021/06/02 11:40:00;;;;;;;5.20;3.25;;;;;;;23.71;24.20;100255.28;5013109;28;20038;-74
2021/06/02 11:42:34;;;;;;;5.70;3.38;;;;;;;23.17;24.95;100250.25;5013092;28;20447;-73
2021/06/02 11:45:05;;;;;;;7.32;3.53;;;;;;;22.92;25.42;100253.19;5012792;28;20052;-73
2021/06/02 11:47:31;;;;;;;8.55;3.22;;;;;;;22.84;25.05;100255.94;5013002;28;20037;-75
2021/06/02 11:50:10;;;;;;;8.05;3.38;;;;;;;22.64;26.06;100256.47;5012673;28;20034;-76
2021/06/02 11:52:37;;;;;;;6.47;2.55;;;;;;;22.72;25.60;100261.78;5012878;28;20041;-77
2021/06/02 11:55:09;;;;;;;7.53;2.65;;;;;;;22.59;25.78;100253.50;5012884;28;20042;-74
2021/06/02 11:57:37;;;;;;;11.10;2.70;;;;;;;22.75;26.26;100255.19;5012861;28;20498;-76
2021/06/02 12:00:10;;;;;;;4.97;2.60;;;;;;;22.74;25.96;100250.81;5012796;28;20042;-74
2021/06/02 12:02:37;;;;;;;4.57;2.40;;;;;;;22.86;25.79;100245.81;5017849;28;20036;-75